Time;durP1;ratioP1;P1;durP2;ratioP2;P2;SDS_P1;SDS_P2;PMS_P1;PMS_P2;Temp;Humidity;BMP_temperature;BMP_pressure;BME280_temperature;BME280_humidity;BME280_pressure;Samples;Min_cycle;Max_cycle;Signal;HPM_P1;HPM_P2
2023/08/14 00:02:22;;;;;;;8.05;3.03;;;15.60;99.90;;;;;;5036283;28;21953;-65
2023/08/14 00:04:51;;;;;;;10.60;4.05;;;15.60;99.90;;;;;;5041148;28;20044;-64
2023/08/14 00:07:16;;;;;;;6.32;3.08;;;15.60;99.90;;;;;;5036696;28;20098;-65
2023/08/14 00:09:42;;;;;;;13.25;3.30;;;15.60;99.90;;;;;;5020927;28;20550;-64
2023/08/14 00:12:07;;;;;;;10.02;3.47;;;15.60;99.90;;;;;;5040132;28;20029;-65
2023/08/14 00:14:33;;;;;;;6.45;3.40;;;15.50;99.90;;;;;;5046596;28;20086;-65
2023/08/14 00:16:59;;;;;;;4.88;2.85;;;15.50;99.90;;;;;;5035088;28;20037;-65
2023/08/14 00:19:25;;;;;;;10.23;3.50;;;15.50;99.90;;;;;;5038085;28;20033;-65
2023/08/14 00:21:50;;;;;;;8.30;3.47;;;15.60;99.90;;;;;;5038870;28;20061;-64
2023/08/14 00:24:16;;;;;;;7.50;3.42;;;15.50;99.90;;;;;;5037263;28;20971;-65
2023/08/14 00:26:42;;;;;;;7.50;2.95;;;15.50;99.90;;;;;;5037346;28;20037;-65
2023/08/14 00:29:07;;;;;;;7.07;3.25;;;15.50;99.90;;;;;;5039757;28;20041;-65
2023/08/14 00:31:33;;;;;;;7.40;3.25;;;15.40;99.90;;;;;;5036529;28;20040;-64
2023/08/14 00:33:59;;;;;;;10.70;3.22;;;15.40;99.90;;;;;;5039256;28;20171;-65
2023/08/14 00:36:24;;;;;;;11.77;3.28;;;15.40;99.90;;;;;;5042847;28;20406;-65
2023/08/14 00:38:50;;;;;;;7.30;2.65;;;15.40;99.90;;;;;;5047975;28;20057;-64
2023/08/14 00:41:16;;;;;;;9.48;3.20;;;15.40;99.90;;;;;;5038018;28;20785;-65
2023/08/14 00:43:41;;;;;;;10.13;3.30;;;15.40;99.90;;;;;;5045997;28;20029;-65
2023/08/14 00:46:08;;;;;;;4.28;2.53;;;15.40;99.90;;;;;;5042901;28;20056;-64
2023/08/14 00:48:34;;;;;;;10.75;2.92;;;15.30;99.90;;;;;;5041614;28;20029;-65
2023/08/14 00:51:00;;;;;;;7.90;3.05;;;15.30;99.90;;;;;;5045088;28;20025;-64
2023/08/14 00:53:28;;;;;;;7.63;3.20;;;15.30;99.90;;;;;;5045601;28;20075;-64
2023/08/14 00:55:54;;;;;;;7.60;2.80;;;15.30;99.90;;;;;;5048141;28;20038;-65
2023/08/14 00:58:21;;;;;;;7.00;3.03;;;15.30;99.90;;;;;;5045785;28;20030;-65
2023/08/14 01:00:47;;;;;;;9.95;3.45;;;15.30;99.90;;;;;;5048315;28;20073;-65
2023/08/14 01:03:13;;;;;;;9.50;3.72;;;15.30;99.90;;;;;;5045769;28;20033;-65
2023/08/14 01:05:39;;;;;;;6.72;3.58;;;15.30;99.90;;;;;;5045976;28;20025;-65
2023/08/14 01:08:05;;;;;;;11.77;4.07;;;15.20;99.90;;;;;;5022804;28;20410;-65
2023/08/14 01:11:23;;;;;;;14.35;4.80;;;15.20;99.90;;;;;;5044304;28;20028;-65
2023/08/14 01:14:12;;;;;;;9.25;3.42;;;15.20;99.90;;;;;;5007506;28;20188;-65
2023/08/14 01:16:41;;;;;;;6.38;2.70;;;15.20;99.90;;;;;;5042240;28;20790;-65
2023/08/14 01:19:18;;;;;;;16.00;3.05;;;15.20;99.90;;;;;;5038285;28;20037;-64
2023/08/14 01:22:15;;;;;;;17.60;3.70;;;15.20;99.90;;;;;;5039913;28;20498;-64
2023/08/14 01:24:59;;;;;;;11.73;2.40;;;15.20;99.90;;;;;;5041401;28;20078;-65
2023/08/14 01:27:25;;;;;;;10.23;3.78;;;15.10;99.90;;;;;;5041545;28;20029;-65
2023/08/14 01:29:59;;;;;;;13.93;4.13;;;15.10;99.90;;;;;;5041418;28;20083;-65
2023/08/14 01:32:25;;;;;;;3.55;2.70;;;15.00;99.90;;;;;;5038561;28;20090;-65
2023/08/14 01:34:51;;;;;;;8.38;3.30;;;15.00;99.90;;;;;;5042030;28;20029;-64
2023/08/14 01:37:42;;;;;;;9.32;3.42;;;15.00;99.90;;;;;;5039643;28;20025;-64
2023/08/14 01:40:28;;;;;;;9.40;3.85;;;15.00;99.90;;;;;;5036605;28;20029;-65
2023/08/14 01:43:01;;;;;;;12.75;4.00;;;15.00;99.90;;;;;;5037884;28;20036;-64
2023/08/14 01:45:29;;;;;;;5.95;3.00;;;15.00;99.90;;;;;;5043538;28;20028;-65
2023/08/14 01:47:58;;;;;;;7.53;3.05;;;15.00;99.90;;;;;;5043393;28;20466;-65
2023/08/14 01:50:26;;;;;;;13.25;3.10;;;14.90;99.90;;;;;;5037511;28;20037;-65
2023/08/14 01:52:52;;;;;;;8.38;3.83;;;14.80;99.90;;;;;;5047833;28;20033;-64
2023/08/14 01:55:18;;;;;;;8.40;3.45;;;14.70;99.90;;;;;;5049221;28;20516;-65
2023/08/14 01:57:43;;;;;;;11.98;3.70;;;14.70;99.90;;;;;;5046442;28;20025;-65
2023/08/14 02:00:09;;;;;;;7.43;3.00;;;14.70;99.90;;;;;;5047743;28;20115;-64
2023/08/14 02:02:35;;;;;;;10.20;3.22;;;14.60;99.90;;;;;;5045973;28;20033;-65
2023/08/14 02:05:01;;;;;;;11.00;3.50;;;14.50;99.90;;;;;;5040261;28;20125;-65
2023/08/14 02:07:27;;;;;;;6.65;2.92;;;14.50;99.90;;;;;;5034659;28;20021;-64
2023/08/14 02:09:53;;;;;;;5.97;3.55;;;14.50;99.90;;;;;;5019121;28;20053;-65
2023/08/14 02:12:18;;;;;;;8.10;4.13;;;14.50;99.90;;;;;;5037370;28;20037;-65
2023/08/14 02:14:44;;;;;;;9.82;3.63;;;14.40;99.90;;;;;;5039103;28;20040;-64
2023/08/14 02:17:09;;;;;;;8.82;3.78;;;14.40;99.90;;;;;;5041006;28;20052;-66
2023/08/14 02:19:35;;;;;;;8.40;3.85;;;14.40;99.90;;;;;;5042264;28;20056;-65
2023/08/14 02:22:01;;;;;;;8.93;3.05;;;14.40;99.90;;;;;;5044721;28;20030;-65
2023/08/14 02:24:26;;;;;;;10.15;3.15;;;14.40;99.90;;;;;;5040453;28;20136;-65
2023/08/14 02:26:52;;;;;;;7.60;3.30;;;14.30;99.90;;;;;;5044790;28;20025;-64
2023/08/14 02:29:18;;;;;;;6.07;3.40;;;14.30;99.90;;;;;;5039844;28;20033;-65
2023/08/14 02:31:46;;;;;;;9.52;3.20;;;14.30;99.90;;;;;;5046823;28;20041;-65
2023/08/14 02:34:12;;;;;;;8.35;3.20;;;14.30;99.90;;;;;;5048100;28;20021;-64
2023/08/14 02:36:37;;;;;;;6.72;3.45;;;14.20;99.90;;;;;;5039434;28;20056;-65
2023/08/14 02:39:03;;;;;;;7.07;3.47;;;14.20;99.90;;;;;;5038648;28;20076;-65
2023/08/14 02:41:29;;;;;;;6.15;3.13;;;14.20;99.90;;;;;;5037032;28;20036;-66
2023/08/14 02:43:54;;;;;;;14.07;4.07;;;14.20;99.90;;;;;;5042472;28;20029;-64
2023/08/14 02:46:21;;;;;;;10.23;3.70;;;14.20;99.90;;;;;;5042152;28;20025;-65
2023/08/14 02:48:47;;;;;;;9.63;2.83;;;14.20;99.90;;;;;;5035457;28;20033;-65
2023/08/14 02:51:14;;;;;;;7.03;3.35;;;14.20;99.90;;;;;;5032073;28;20048;-64
2023/08/14 02:53:40;;;;;;;7.15;3.78;;;14.10;99.90;;;;;;5042371;28;20032;-65
2023/08/14 02:56:06;;;;;;;9.07;3.33;;;14.10;99.90;;;;;;5033801;28;20045;-65
2023/08/14 02:58:32;;;;;;;7.90;3.53;;;14.10;99.90;;;;;;5041435;28;20036;-66
2023/08/14 03:00:57;;;;;;;7.35;3.72;;;14.10;99.90;;;;;;5049907;28;20075;-66
2023/08/14 03:03:23;;;;;;;8.45;4.03;;;14.10;99.90;;;;;;5045733;28;20500;-65
2023/08/14 03:05:52;;;;;;;10.18;3.40;;;14.00;99.90;;;;;;5032086;28;20032;-65
2023/08/14 03:08:17;;;;;;;8.15;3.60;;;14.00;99.90;;;;;;5043019;28;20396;-65
2023/08/14 03:10:43;;;;;;;11.50;3.30;;;14.00;99.90;;;;;;5043201;28;20035;-67
2023/08/14 03:13:09;;;;;;;7.10;3.28;;;14.00;99.90;;;;;;5043930;28;20398;-65
2023/08/14 03:15:34;;;;;;;12.43;3.78;;;13.90;99.90;;;;;;5047434;28;20024;-66
2023/08/14 03:18:00;;;;;;;6.35;3.40;;;13.90;99.90;;;;;;5043227;28;20036;-66
2023/08/14 03:20:26;;;;;;;9.45;3.38;;;13.90;99.90;;;;;;5045179;28;20028;-66
2023/08/14 03:22:52;;;;;;;9.55;3.50;;;13.90;99.90;;;;;;5043939;28;20112;-65
2023/08/14 03:25:18;;;;;;;10.35;3.92;;;14.00;99.90;;;;;;5038623;28;20150;-65
2023/08/14 03:27:43;;;;;;;9.55;3.17;;;14.00;99.90;;;;;;5038562;28;20026;-65
2023/08/14 03:30:09;;;;;;;7.18;3.95;;;14.00;99.90;;;;;;5047562;28;20108;-65
2023/08/14 03:32:35;;;;;;;14.07;4.47;;;14.00;99.90;;;;;;5039659;28;20030;-67
2023/08/14 03:35:01;;;;;;;9.98;3.50;;;13.90;99.90;;;;;;5041183;28;20029;-66
2023/08/14 03:37:29;;;;;;;8.77;3.08;;;14.00;99.90;;;;;;5035075;28;20059;-66
2023/08/14 03:39:54;;;;;;;5.90;2.67;;;13.90;99.90;;;;;;5041250;28;20037;-65
2023/08/14 03:42:20;;;;;;;5.60;3.28;;;13.90;99.90;;;;;;5038553;28;20409;-66
2023/08/14 03:44:45;;;;;;;12.90;4.00;;;13.90;99.90;;;;;;5036409;28;20112;-65
2023/08/14 03:47:12;;;;;;;7.72;3.88;;;13.90;99.90;;;;;;5034613;28;20021;-65
2023/08/14 03:49:38;;;;;;;9.57;3.35;;;13.90;99.90;;;;;;5039079;28;20040;-67
2023/08/14 03:52:06;;;;;;;4.97;3.33;;;13.90;99.90;;;;;;5041722;28;20029;-66
2023/08/14 03:54:32;;;;;;;8.55;3.47;;;13.90;99.90;;;;;;5048180;28;20027;-65
2023/08/14 03:56:58;;;;;;;13.52;3.25;;;13.80;99.90;;;;;;5038163;28;20397;-66
2023/08/14 03:59:24;;;;;;;8.98;3.70;;;13.80;99.90;;;;;;5041726;28;20028;-66
2023/08/14 04:01:50;;;;;;;9.53;3.77;;;13.70;99.90;;;;;;5044122;28;20028;-66
2023/08/14 04:04:16;;;;;;;5.60;2.92;;;13.70;99.90;;;;;;5044821;28;20029;-65
2023/08/14 04:06:44;;;;;;;10.20;5.32;;;13.70;99.90;;;;;;5045307;28;20048;-66
2023/08/14 04:09:10;;;;;;;13.98;3.90;;;13.70;99.90;;;;;;5034559;28;20034;-66
2023/08/14 04:11:36;;;;;;;11.43;3.53;;;13.70;99.90;;;;;;5043632;28;20490;-65
2023/08/14 04:14:02;;;;;;;10.00;4.70;;;13.70;99.90;;;;;;5040027;28;20151;-65
2023/08/14 04:16:41;;;;;;;5.13;3.53;;;13.70;99.90;;;;;;5045175;28;20036;-66
2023/08/14 04:19:08;;;;;;;9.23;4.25;;;13.70;99.90;;;;;;5037105;28;20102;-65
2023/08/14 04:21:35;;;;;;;7.35;4.00;;;13.70;99.90;;;;;;5046156;28;20029;-65
2023/08/14 04:24:00;;;;;;;9.80;3.63;;;13.70;99.90;;;;;;5047752;28;20120;-66
2023/08/14 04:26:26;;;;;;;6.53;3.15;;;13.70;99.90;;;;;;5044714;28;20116;-65
2023/08/14 04:28:52;;;;;;;11.07;3.33;;;13.80;99.90;;;;;;5040283;28;20483;-65
2023/08/14 04:31:18;;;;;;;7.28;3.67;;;13.80;99.90;;;;;;5036035;28;20040;-66
2023/08/14 04:33:43;;;;;;;9.32;3.72;;;13.90;99.90;;;;;;5037839;28;20034;-66
2023/08/14 04:36:12;;;;;;;8.30;4.07;;;13.90;99.90;;;;;;5042055;28;20513;-66
2023/08/14 04:38:38;;;;;;;9.00;3.83;;;13.90;99.90;;;;;;5040191;28;20025;-66
2023/08/14 04:41:04;;;;;;;6.20;3.75;;;13.80;99.90;;;;;;5038695;28;20033;-66
2023/08/14 04:43:31;;;;;;;10.98;3.90;;;13.80;99.90;;;;;;5038611;28;20021;-65
2023/08/14 04:45:58;;;;;;;12.57;4.18;;;13.90;99.90;;;;;;5042341;28;20051;-66
2023/08/14 04:48:24;;;;;;;12.10;3.92;;;14.00;99.90;;;;;;5041327;28;20125;-65
2023/08/14 04:50:49;;;;;;;14.95;3.78;;;14.00;99.90;;;;;;5040819;28;21765;-65
2023/08/14 04:53:15;;;;;;;8.02;3.75;;;14.10;99.90;;;;;;5041595;28;20028;-66
2023/08/14 04:55:41;;;;;;;10.57;3.70;;;14.10;99.90;;;;;;5039882;28;20580;-66
2023/08/14 04:58:06;;;;;;;8.80;3.28;;;14.20;99.90;;;;;;5039570;28;20038;-66
2023/08/14 05:00:32;;;;;;;7.93;3.95;;;14.30;99.90;;;;;;5043174;28;20028;-65
2023/08/14 05:02:58;;;;;;;9.82;3.28;;;14.40;99.90;;;;;;5036193;28;20025;-66
2023/08/14 05:05:23;;;;;;;6.07;2.95;;;14.40;99.90;;;;;;5056423;28;20033;-65
2023/08/14 05:07:49;;;;;;;6.32;3.03;;;14.50;99.90;;;;;;5040631;28;20048;-65
2023/08/14 05:10:15;;;;;;;10.18;3.30;;;14.60;99.90;;;;;;5047063;28;20433;-65
2023/08/14 05:12:41;;;;;;;5.30;3.28;;;15.10;99.90;;;;;;5041901;28;20076;-66
2023/08/14 05:15:07;;;;;;;8.30;2.40;;;15.90;99.90;;;;;;5046787;28;20033;-66
2023/08/14 05:17:33;;;;;;;5.88;2.10;;;16.90;99.90;;;;;;5038028;28;20032;-65
2023/08/14 05:19:58;;;;;;;6.85;2.40;;;17.90;99.90;;;;;;5042760;28;20033;-66
2023/08/14 05:22:24;;;;;;;7.03;2.45;;;18.60;99.90;;;;;;5038756;28;20547;-66
2023/08/14 05:24:50;;;;;;;5.93;1.75;;;19.70;99.90;;;;;;5036836;28;20025;-66
2023/08/14 05:27:15;;;;;;;5.38;1.73;;;20.60;99.90;;;;;;5040194;28;20032;-68
2023/08/14 05:29:41;;;;;;;3.95;1.52;;;20.70;99.90;;;;;;5045122;28;20079;-66
2023/08/14 05:32:07;;;;;;;3.08;1.60;;;21.30;99.90;;;;;;5036669;28;20028;-66
2023/08/14 05:34:33;;;;;;;3.80;1.48;;;21.70;99.90;;;;;;5041012;28;20032;-66
2023/08/14 05:36:58;;;;;;;4.43;1.88;;;21.70;99.90;;;;;;5042922;28;20037;-66
2023/08/14 05:39:24;;;;;;;5.18;1.63;;;22.20;99.90;;;;;;5036414;28;20033;-66
2023/08/14 05:41:50;;;;;;;7.30;1.88;;;22.30;99.90;;;;;;5036062;28;20502;-67
2023/08/14 05:44:17;;;;;;;9.20;2.05;;;21.60;99.90;;;;;;5040868;28;20505;-66
2023/08/14 05:46:43;;;;;;;3.28;1.67;;;21.00;99.90;;;;;;5041116;28;20032;-66
2023/08/14 05:49:09;;;;;;;2.67;1.55;;;20.90;99.90;;;;;;5038965;28;20029;-66
2023/08/14 05:51:34;;;;;;;11.20;1.65;;;21.80;99.90;;;;;;5039204;28;20059;-67
2023/08/14 05:54:00;;;;;;;4.10;2.08;;;22.60;99.90;;;;;;5038940;28;20025;-67
2023/08/14 05:56:26;;;;;;;8.60;2.30;;;22.60;99.90;;;;;;5036822;28;20072;-67
2023/08/14 05:58:51;;;;;;;4.68;1.40;;;22.90;99.90;;;;;;5044710;28;20082;-67
2023/08/14 06:01:17;;;;;;;5.22;1.85;;;23.30;99.90;;;;;;5037383;28;20033;-66
2023/08/14 06:03:43;;;;;;;8.38;1.60;;;23.30;99.90;;;;;;5043924;28;20117;-68
2023/08/14 06:06:09;;;;;;;4.82;1.77;;;23.70;99.90;;;;;;5047717;28;20025;-67
2023/08/14 06:08:34;;;;;;;5.10;1.77;;;24.10;99.90;;;;;;5038882;28;20024;-66
2023/08/14 06:11:02;;;;;;;7.53;2.25;;;24.30;99.90;;;;;;5043954;28;20492;-65
2023/08/14 06:13:29;;;;;;;2.55;1.58;;;24.30;98.80;;;;;;5034460;28;20124;-65
2023/08/14 06:15:55;;;;;;;4.20;1.80;;;24.40;99.40;;;;;;5046040;28;20041;-65
2023/08/14 06:18:20;;;;;;;5.43;2.17;;;24.50;99.90;;;;;;5033249;28;20033;-65
2023/08/14 06:20:46;;;;;;;4.75;1.63;;;24.60;98.40;;;;;;5040593;28;20060;-65
2023/08/14 06:23:11;;;;;;;13.57;3.20;;;24.40;98.20;;;;;;5037905;28;20029;-65
2023/08/14 06:25:38;;;;;;;8.48;1.83;;;24.20;99.20;;;;;;5041684;28;20029;-64
2023/08/14 06:28:04;;;;;;;4.53;1.45;;;24.00;99.60;;;;;;5036766;28;20033;-65
2023/08/14 06:30:30;;;;;;;8.77;2.00;;;24.50;99.90;;;;;;5038750;28;20024;-64
2023/08/14 06:32:55;;;;;;;4.47;1.60;;;25.30;99.40;;;;;;5034862;28;20449;-65
2023/08/14 06:35:21;;;;;;;7.20;1.88;;;26.50;97.10;;;;;;5038731;28;20031;-64
2023/08/14 06:37:47;;;;;;;6.13;1.60;;;27.40;94.60;;;;;;5034285;28;20148;-65
2023/08/14 06:40:14;;;;;;;3.67;2.00;;;27.30;93.30;;;;;;5041782;28;20517;-65
2023/08/14 06:42:40;;;;;;;5.60;2.13;;;26.30;95.10;;;;;;5037227;28;20609;-64
2023/08/14 06:45:06;;;;;;;4.13;1.83;;;25.80;95.50;;;;;;5037452;28;20056;-64
2023/08/14 06:47:32;;;;;;;3.40;1.85;;;24.90;96.80;;;;;;5040452;28;20009;-64
2023/08/14 06:49:58;;;;;;;4.95;2.03;;;23.90;99.80;;;;;;5031366;28;20021;-64
2023/08/14 06:52:23;;;;;;;4.32;1.85;;;23.30;99.90;;;;;;5032845;28;20040;-64
2023/08/14 06:54:49;;;;;;;8.38;2.17;;;22.80;99.90;;;;;;5035938;28;20047;-63
2023/08/14 06:57:15;;;;;;;6.07;2.10;;;23.10;99.90;;;;;;5033758;28;20032;-64
2023/08/14 06:59:41;;;;;;;7.72;1.90;;;24.30;99.90;;;;;;5038654;28;20441;-63
2023/08/14 07:02:06;;;;;;;4.95;1.77;;;24.80;99.90;;;;;;5038042;28;20038;-62
2023/08/14 07:04:32;;;;;;;5.70;1.92;;;25.10;99.90;;;;;;5040765;28;20025;-64
2023/08/14 07:06:58;;;;;;;3.95;1.15;;;25.90;99.30;;;;;;5038292;28;20025;-65
2023/08/14 07:09:23;;;;;;;5.25;1.98;;;26.40;96.60;;;;;;5046016;28;20363;-65
2023/08/14 07:11:49;;;;;;;4.80;1.77;;;26.70;96.00;;;;;;5040514;28;20507;-64
2023/08/14 07:14:14;;;;;;;2.72;1.27;;;27.60;94.90;;;;;;5030391;28;20444;-64
2023/08/14 07:16:40;;;;;;;3.70;1.05;;;28.50;93.80;;;;;;5036764;28;20029;-64
2023/08/14 07:19:06;;;;;;;5.13;1.85;;;27.80;93.10;;;;;;5035746;28;20608;-65
2023/08/14 07:21:32;;;;;;;6.32;2.17;;;27.50;92.70;;;;;;5037515;28;20426;-64
2023/08/14 07:23:58;;;;;;;4.88;1.75;;;28.10;91.80;;;;;;5039584;28;20025;-65
2023/08/14 07:26:24;;;;;;;5.20;1.33;;;26.90;93.30;;;;;;5038111;28;20033;-64
2023/08/14 07:28:49;;;;;;;6.68;1.95;;;26.50;94.80;;;;;;5042861;28;20021;-64
2023/08/14 07:31:15;;;;;;;4.03;1.55;;;25.90;95.10;;;;;;5043821;28;20032;-64
2023/08/14 07:33:41;;;;;;;6.22;1.73;;;25.90;95.60;;;;;;5035366;28;20029;-64
2023/08/14 07:36:07;;;;;;;3.00;1.70;;;25.10;97.60;;;;;;5033090;28;20021;-65
2023/08/14 07:38:33;;;;;;;6.32;1.83;;;24.40;99.80;;;;;;5041149;28;20029;-63
2023/08/14 07:40:58;;;;;;;6.57;1.70;;;24.10;99.90;;;;;;5033677;28;20083;-63
2023/08/14 07:43:24;;;;;;;3.88;1.65;;;23.80;99.90;;;;;;5033078;28;20686;-63
2023/08/14 07:45:51;;;;;;;3.75;1.80;;;23.60;99.90;;;;;;5040866;28;20025;-64
2023/08/14 07:48:18;;;;;;;4.47;1.88;;;23.20;99.90;;;;;;5038092;28;20053;-65
2023/08/14 07:50:44;;;;;;;5.32;1.85;;;23.10;99.90;;;;;;5043226;28;20567;-64
2023/08/14 07:53:10;;;;;;;6.55;1.98;;;22.80;99.90;;;;;;5040215;28;20108;-65
2023/08/14 07:55:36;;;;;;;4.15;2.10;;;22.60;99.90;;;;;;5041586;28;20117;-66
2023/08/14 07:58:05;;;;;;;3.75;1.73;;;22.30;99.90;;;;;;5036663;28;20855;-66
2023/08/14 08:00:33;;;;;;;4.30;2.00;;;22.10;99.90;;;;;;5034140;28;20042;-66
2023/08/14 08:03:01;;;;;;;5.80;2.80;;;22.10;99.90;;;;;;5037622;28;20029;-67
2023/08/14 08:05:27;;;;;;;9.05;2.20;;;22.00;99.90;;;;;;5038986;28;20036;-67
2023/08/14 08:07:53;;;;;;;1.60;1.10;;;22.10;99.90;;;;;;5044931;28;20052;-65
2023/08/14 08:10:19;;;;;;;4.78;1.73;;;22.00;99.90;;;;;;5042409;28;20056;-66
2023/08/14 08:12:45;;;;;;;4.90;1.88;;;22.00;99.90;;;;;;5039910;28;20040;-65
2023/08/14 08:15:11;;;;;;;11.45;2.08;;;21.80;99.90;;;;;;5037600;28;20030;-66
2023/08/14 08:17:37;;;;;;;10.57;1.88;;;21.90;99.90;;;;;;5041778;28;20032;-65
2023/08/14 08:20:04;;;;;;;5.57;1.85;;;22.00;99.90;;;;;;5039172;28;20029;-67
2023/08/14 08:22:30;;;;;;;3.53;1.88;;;22.10;99.90;;;;;;5034791;28;20578;-66
2023/08/14 08:24:55;;;;;;;5.13;1.80;;;22.50;99.90;;;;;;5044101;28;20107;-66
2023/08/14 08:27:21;;;;;;;10.10;2.00;;;22.60;99.90;;;;;;5040396;28;21961;-66
2023/08/14 08:29:47;;;;;;;4.75;1.70;;;22.80;99.90;;;;;;5039339;28;20446;-66
2023/08/14 08:32:13;;;;;;;6.15;1.52;;;23.10;99.90;;;;;;5038792;28;20013;-66
2023/08/14 08:34:39;;;;;;;11.05;1.83;;;23.40;99.90;;;;;;5043331;28;20025;-67
2023/08/14 08:37:06;;;;;;;6.50;1.63;;;23.70;99.90;;;;;;5044229;28;20032;-66
2023/08/14 08:39:32;;;;;;;4.25;1.80;;;23.70;99.90;;;;;;5044719;28;20478;-68
2023/08/14 08:41:58;;;;;;;5.15;1.95;;;23.90;99.90;;;;;;5040382;28;20479;-66
2023/08/14 08:44:31;;;;;;;4.47;1.80;;;24.20;99.90;;;;;;5041376;28;20040;-67
2023/08/14 08:46:58;;;;;;;5.80;2.17;;;24.50;99.90;;;;;;5035002;28;20525;-66
2023/08/14 08:49:24;;;;;;;4.55;1.85;;;25.00;99.90;;;;;;5041755;28;20454;-67
2023/08/14 08:51:51;;;;;;;5.45;1.95;;;25.30;99.90;;;;;;5044246;28;20030;-67
2023/08/14 08:54:18;;;;;;;6.72;2.05;;;25.60;99.90;;;;;;5054534;28;20060;-67
2023/08/14 08:56:45;;;;;;;11.05;2.25;;;25.80;99.60;;;;;;5051327;28;20925;-66
2023/08/14 08:59:14;;;;;;;4.32;1.65;;;25.30;99.90;;;;;;5052403;28;20028;-67
2023/08/14 09:01:41;;;;;;;8.88;1.77;;;25.40;99.90;;;;;;5043380;28;20029;-66
2023/08/14 09:04:07;;;;;;;5.07;1.65;;;25.30;99.90;;;;;;5047455;28;20029;-66
2023/08/14 09:06:33;;;;;;;6.22;2.40;;;25.20;99.90;;;;;;5047986;28;20032;-67
2023/08/14 09:09:01;;;;;;;4.13;1.90;;;25.40;99.90;;;;;;5040452;28;20112;-66
2023/08/14 09:11:28;;;;;;;4.50;1.73;;;25.60;99.90;;;;;;5040608;28;20033;-68
2023/08/14 09:13:54;;;;;;;5.25;1.85;;;25.70;99.90;;;;;;5039061;28;20029;-67
2023/08/14 09:16:20;;;;;;;2.58;1.40;;;25.40;99.90;;;;;;5038987;28;20056;-66
2023/08/14 09:18:46;;;;;;;6.22;1.98;;;25.50;99.90;;;;;;5046739;28;20056;-66
2023/08/14 09:21:12;;;;;;;6.20;1.65;;;26.00;99.60;;;;;;5041192;28;20040;-65
2023/08/14 09:23:39;;;;;;;4.60;1.95;;;25.90;99.90;;;;;;5040942;28;20052;-67
2023/08/14 09:26:05;;;;;;;8.80;2.03;;;26.00;99.10;;;;;;5040312;28;20177;-66
2023/08/14 09:28:32;;;;;;;8.15;1.60;;;26.00;99.60;;;;;;5046757;28;20055;-67
2023/08/14 09:31:06;;;;;;;3.13;1.45;;;26.60;98.60;;;;;;5040658;28;20029;-68
2023/08/14 09:33:32;;;;;;;4.93;1.70;;;27.00;97.50;;;;;;5041661;28;20043;-64
2023/08/14 09:35:59;;;;;;;4.97;1.88;;;27.10;97.30;;;;;;5037834;28;20095;-65
2023/08/14 09:38:25;;;;;;;4.70;1.85;;;27.00;97.80;;;;;;5038228;28;20498;-65
2023/08/14 09:40:58;;;;;;;3.95;1.63;;;26.90;97.10;;;;;;5037369;28;20091;-63
2023/08/14 09:43:24;;;;;;;;;;;26.70;97.40;;;;;;5043937;28;20033;-65
2023/08/14 09:45:51;;;;;;;3.05;1.52;;;26.60;98.40;;;;;;5052336;28;20049;-64
2023/08/14 09:48:17;;;;;;;3.83;1.50;;;26.60;97.60;;;;;;5046114;28;20032;-64
2023/08/14 09:50:49;;;;;;;5.57;1.70;;;26.50;99.60;;;;;;5037741;28;20037;-64
2023/08/14 09:53:14;;;;;;;5.07;1.27;;;26.30;99.10;;;;;;5046820;28;20111;-64
2023/08/14 09:55:41;;;;;;;5.97;1.67;;;26.40;99.30;;;;;;5043050;28;20119;-63
2023/08/14 09:58:07;;;;;;;4.72;1.83;;;26.30;99.10;;;;;;5042813;28;20032;-64
2023/08/14 10:00:33;;;;;;;7.78;2.05;;;26.60;99.20;;;;;;5042862;28;20160;-65
2023/08/14 10:03:00;;;;;;;4.65;1.92;;;26.50;99.40;;;;;;5031940;28;20086;-66
2023/08/14 10:05:27;;;;;;;5.45;1.80;;;26.90;99.40;;;;;;5051181;28;20028;-66
2023/08/14 10:07:54;;;;;;;5.28;1.50;;;27.00;99.20;;;;;;5045751;28;20029;-67
2023/08/14 10:10:29;;;;;;;4.57;1.73;;;27.30;98.40;;;;;;5043681;28;20038;-64
2023/08/14 10:13:01;;;;;;;6.90;1.88;;;27.40;97.90;;;;;;5034012;28;20029;-64
2023/08/14 10:15:31;;;;;;;3.55;1.95;;;27.30;97.40;;;;;;5040771;28;20490;-64
2023/08/14 10:18:01;;;;;;;4.40;1.85;;;27.10;98.50;;;;;;5037289;28;20418;-66
2023/08/14 10:20:31;;;;;;;8.15;1.88;;;27.30;97.60;;;;;;5032744;28;20032;-65
2023/08/14 10:22:57;;;;;;;10.45;1.83;;;27.60;97.70;;;;;;5036030;28;20112;-64
2023/08/14 10:25:23;;;;;;;3.42;1.50;;;28.20;95.30;;;;;;5037771;28;20091;-65
2023/08/14 10:27:53;;;;;;;2.85;1.30;;;28.40;96.20;;;;;;5041966;28;20478;-64
2023/08/14 10:30:24;;;;;;;6.45;1.55;;;28.30;96.30;;;;;;5040805;28;20380;-64
2023/08/14 10:32:51;;;;;;;2.88;1.65;;;28.70;95.20;;;;;;5035675;28;20052;-64
2023/08/14 10:35:19;;;;;;;7.32;2.17;;;28.70;94.40;;;;;;5045054;28;20032;-63
2023/08/14 10:37:47;;;;;;;11.52;2.20;;;28.90;93.90;;;;;;5045950;28;20423;-64
2023/08/14 10:40:18;;;;;;;8.40;1.70;;;29.10;94.30;;;;;;5052173;28;20124;-64
2023/08/14 10:42:47;;;;;;;5.35;2.15;;;29.10;92.70;;;;;;5033661;28;20056;-65
2023/08/14 10:45:17;;;;;;;5.82;1.42;;;29.30;91.90;;;;;;5042815;28;20506;-65
2023/08/14 10:47:44;;;;;;;5.72;1.80;;;29.50;95.10;;;;;;5034729;28;20025;-65
2023/08/14 10:50:23;;;;;;;6.63;2.03;;;29.40;92.60;;;;;;5031840;28;20026;-64
2023/08/14 10:52:52;;;;;;;4.22;1.73;;;29.50;94.00;;;;;;5037728;28;20079;-65
2023/08/14 10:55:24;;;;;;;2.97;1.55;;;29.90;91.70;;;;;;5035380;28;20629;-66
2023/08/14 10:57:51;;;;;;;6.45;1.50;;;29.70;90.20;;;;;;5041273;28;20120;-65
2023/08/14 11:00:22;;;;;;;4.82;1.80;;;29.70;90.00;;;;;;5050940;28;20028;-66
2023/08/14 11:03:12;;;;;;;3.83;1.40;;;29.40;91.40;;;;;;5041747;28;20044;-65
2023/08/14 11:05:39;;;;;;;8.15;1.90;;;29.60;90.50;;;;;;5038743;28;20069;-66
2023/08/14 11:08:07;;;;;;;5.30;1.58;;;29.40;92.20;;;;;;5042617;28;20025;-65
2023/08/14 11:10:36;;;;;;;3.08;1.58;;;29.50;92.30;;;;;;5042524;28;20057;-66
2023/08/14 11:13:09;;;;;;;4.75;1.60;;;30.10;91.70;;;;;;5040428;28;20043;-65
2023/08/14 11:15:39;;;;;;;5.55;2.17;;;30.40;90.30;;;;;;5046246;28;20411;-65
2023/08/14 11:18:10;;;;;;;3.88;1.63;;;30.20;91.20;;;;;;5040268;28;20071;-65
2023/08/14 11:20:38;;;;;;;2.72;1.20;;;30.30;90.20;;;;;;5039960;28;20486;-65
2023/08/14 11:23:06;;;;;;;5.10;1.58;;;30.10;91.80;;;;;;5040008;28;20025;-65
2023/08/14 11:25:33;;;;;;;4.22;1.70;;;29.40;91.30;;;;;;5039600;28;20044;-66
2023/08/14 11:27:59;;;;;;;4.47;1.88;;;28.40;92.70;;;;;;5041381;28;20048;-64
2023/08/14 11:30:30;;;;;;;4.32;1.60;;;27.60;94.50;;;;;;5037143;28;20375;-64
2023/08/14 11:32:56;;;;;;;5.57;1.90;;;26.80;96.60;;;;;;5037210;28;20033;-65
2023/08/14 11:35:22;;;;;;;4.72;1.90;;;26.10;99.30;;;;;;5038022;28;20040;-67
2023/08/14 11:37:48;;;;;;;8.82;2.75;;;25.70;99.90;;;;;;5042493;28;20439;-66
2023/08/14 11:40:18;;;;;;;6.90;2.10;;;25.30;99.90;;;;;;5032754;28;20041;-65
2023/08/14 11:42:44;;;;;;;8.82;2.95;;;25.00;99.90;;;;;;5038119;28;20041;-65
2023/08/14 11:45:10;;;;;;;4.97;2.33;;;24.60;99.90;;;;;;5034484;28;20096;-65
2023/08/14 11:47:39;;;;;;;10.35;2.20;;;24.60;99.90;;;;;;5044335;28;20510;-65
2023/08/14 11:50:07;;;;;;;5.80;1.88;;;24.40;99.90;;;;;;5039244;28;20414;-66
2023/08/14 11:52:36;;;;;;;8.40;2.10;;;24.20;99.90;;;;;;5037368;28;20199;-66
2023/08/14 11:55:03;;;;;;;4.10;2.15;;;24.30;99.90;;;;;;5044173;28;20017;-65
2023/08/14 11:57:32;;;;;;;7.68;1.77;;;24.50;99.90;;;;;;5035748;28;20046;-65
2023/08/14 12:00:00;;;;;;;6.15;2.30;;;24.70;99.90;;;;;;5054678;28;20025;-66
2023/08/14 12:02:29;;;;;;;6.90;2.08;;;24.70;99.90;;;;;;5034952;28;20419;-65
2023/08/14 12:04:56;;;;;;;3.75;1.65;;;24.60;99.90;;;;;;5038843;28;20025;-66
2023/08/14 12:07:24;;;;;;;5.50;2.10;;;24.70;99.90;;;;;;5039291;28;20119;-66
2023/08/14 12:09:52;;;;;;;4.95;1.95;;;24.70;99.90;;;;;;5040310;28;20431;-66
2023/08/14 12:12:18;;;;;;;3.88;1.90;;;24.70;99.90;;;;;;5037182;28;20029;-66
2023/08/14 12:14:47;;;;;;;4.95;1.88;;;24.90;99.90;;;;;;5036943;28;20048;-67
2023/08/14 12:17:16;;;;;;;8.00;1.98;;;24.60;99.90;;;;;;5033373;28;20044;-65
2023/08/14 12:19:42;;;;;;;6.32;2.13;;;24.80;99.90;;;;;;5039363;28;20056;-66
2023/08/14 12:22:09;;;;;;;5.32;1.85;;;24.70;99.90;;;;;;5036222;28;20032;-66
2023/08/14 12:24:39;;;;;;;4.13;1.70;;;24.60;99.90;;;;;;5041432;28;20033;-66
2023/08/14 12:27:24;;;;;;;6.97;2.13;;;24.80;99.90;;;;;;5035539;28;20033;-66
2023/08/14 12:29:52;;;;;;;6.50;2.00;;;24.80;99.90;;;;;;5039768;28;20515;-65
2023/08/14 12:32:18;;;;;;;5.93;1.90;;;24.90;99.90;;;;;;5043618;28;20055;-65
2023/08/14 12:34:44;;;;;;;7.97;2.03;;;24.90;99.90;;;;;;5040849;28;20061;-66
2023/08/14 12:37:12;;;;;;;8.07;1.98;;;24.80;99.90;;;;;;5042644;28;20061;-66
2023/08/14 12:39:38;;;;;;;4.22;1.92;;;24.80;99.90;;;;;;5043857;28;20021;-65
2023/08/14 12:42:04;;;;;;;4.95;1.70;;;25.20;99.90;;;;;;5035697;28;20044;-66
2023/08/14 12:44:31;;;;;;;5.80;1.95;;;25.20;99.90;;;;;;5036626;28;20030;-65
2023/08/14 12:46:57;;;;;;;8.82;2.75;;;25.30;99.90;;;;;;5038924;28;20029;-66